Time;durP1;ratioP1;P1;durP2;ratioP2;P2;SDS_P1;SDS_P2;PMS_P1;PMS_P2;Temp;Humidity;BMP_temperature;BMP_pressure;BME280_temperature;BME280_humidity;BME280_pressure;Samples;Min_cycle;Max_cycle;Signal;HPM_P1;HPM_P2
2021/11/27 00:00:23;;;;;;;4.15;2.75;;;;;;;;;;2081699;28;20033;-79
2021/11/27 00:01:43;;;;;;;3.78;2.40;;;;;;;;;;2085057;28;20029;-79
2021/11/27 00:03:02;;;;;;;3.15;2.30;;;;;;;;;;2084250;28;20041;-78
2021/11/27 00:04:21;;;;;;;3.72;2.55;;;;;;;;;;2085699;28;20104;-79
2021/11/27 00:05:41;;;;;;;3.83;2.35;;;;;;;;;;2088920;28;20025;-78
2021/11/27 00:07:00;;;;;;;7.18;2.70;;;;;;;;;;2088125;28;20033;-78
2021/11/27 00:08:19;;;;;;;6.28;2.60;;;;;;;;;;2086641;28;20028;-78
2021/11/27 00:09:38;;;;;;;2.63;2.40;;;;;;;;;;2087055;28;20424;-79
2021/11/27 00:10:58;;;;;;;2.42;2.22;;;;;;;;;;2086787;28;20428;-78
2021/11/27 00:12:17;;;;;;;2.30;2.10;;;;;;;;;;2082962;28;20032;-79
2021/11/27 00:13:36;;;;;;;2.50;2.30;;;;;;;;;;2089972;28;20114;-78
2021/11/27 00:14:55;;;;;;;3.38;2.30;;;;;;;;;;2090989;28;20064;-78
2021/11/27 00:16:14;;;;;;;2.95;2.20;;;;;;;;;;2088226;28;20505;-78
2021/11/27 00:17:33;;;;;;;2.97;2.25;;;;;;;;;;2085956;28;20037;-79
2021/11/27 00:18:52;;;;;;;2.78;2.50;;;;;;;;;;2085977;28;20037;-79
2021/11/27 00:20:13;;;;;;;2.28;1.92;;;;;;;;;;2089549;28;20025;-79
2021/11/27 00:21:32;;;;;;;2.92;2.50;;;;;;;;;;2090438;28;20033;-78
2021/11/27 00:23:54;;;;;;;2.60;2.20;;;;;;;;;;2078688;28;20037;-67
2021/11/27 00:25:14;;;;;;;2.15;1.95;;;;;;;;;;2082108;28;20033;-66
2021/11/27 00:26:33;;;;;;;2.53;2.08;;;;;;;;;;2080910;28;20395;-66
2021/11/27 00:27:52;;;;;;;2.30;2.00;;;;;;;;;;2081540;28;20033;-66
2021/11/27 00:29:11;;;;;;;2.45;2.20;;;;;;;;;;2081633;28;20034;-67
2021/11/27 00:30:31;;;;;;;3.13;2.25;;;;;;;;;;2086791;28;20504;-66
2021/11/27 00:31:51;;;;;;;3.92;1.92;;;;;;;;;;2082646;28;20496;-67
2021/11/27 00:33:10;;;;;;;2.72;2.38;;;;;;;;;;2083561;28;20390;-68
2021/11/27 00:34:29;;;;;;;2.47;2.28;;;;;;;;;;2081221;28;20037;-65
2021/11/27 00:35:48;;;;;;;4.10;1.90;;;;;;;;;;2082094;28;20034;-66
2021/11/27 00:37:07;;;;;;;1.85;1.73;;;;;;;;;;2081133;28;20104;-66
2021/11/27 00:38:26;;;;;;;2.72;2.25;;;;;;;;;;2083072;28;20539;-68
2021/11/27 00:39:45;;;;;;;2.08;1.83;;;;;;;;;;2081995;28;20068;-66
2021/11/27 00:41:04;;;;;;;2.42;1.83;;;;;;;;;;2083829;28;20025;-66
2021/11/27 00:42:23;;;;;;;4.70;2.45;;;;;;;;;;2082250;28;20068;-65
2021/11/27 00:43:42;;;;;;;3.67;2.20;;;;;;;;;;2081735;28;20403;-65
2021/11/27 00:45:01;;;;;;;2.15;2.00;;;;;;;;;;2073223;28;20018;-67
2021/11/27 00:46:21;;;;;;;3.55;2.10;;;;;;;;;;2075612;28;20057;-66
2021/11/27 00:47:41;;;;;;;1.88;1.77;;;;;;;;;;2077573;28;20018;-66
2021/11/27 00:49:00;;;;;;;2.08;1.80;;;;;;;;;;2073590;28;20031;-65
2021/11/27 00:50:21;;;;;;;2.03;1.83;;;;;;;;;;2074169;28;20030;-66
2021/11/27 00:51:40;;;;;;;1.55;1.45;;;;;;;;;;2074449;28;20030;-65
2021/11/27 00:53:00;;;;;;;3.30;1.98;;;;;;;;;;2072217;28;20029;-65
2021/11/27 00:54:22;;;;;;;5.78;2.10;;;;;;;;;;2074487;28;20033;-67
2021/11/27 00:55:41;;;;;;;5.57;2.05;;;;;;;;;;2080882;28;20033;-66
2021/11/27 00:57:00;;;;;;;2.20;2.00;;;;;;;;;;2075574;28;20038;-66
2021/11/27 00:58:19;;;;;;;3.97;2.20;;;;;;;;;;2074112;28;20022;-66
2021/11/27 00:59:38;;;;;;;3.92;1.80;;;;;;;;;;2074713;28;20104;-66
2021/11/27 01:00:59;;;;;;;5.88;1.90;;;;;;;;;;2071901;28;20057;-66
2021/11/27 01:02:18;;;;;;;2.33;2.13;;;;;;;;;;2076119;28;20034;-66
2021/11/27 01:03:37;;;;;;;1.67;1.58;;;;;;;;;;2070744;28;20512;-66
2021/11/27 01:04:56;;;;;;;2.35;2.15;;;;;;;;;;2072559;28;20030;-66
2021/11/27 01:06:17;;;;;;;4.65;2.05;;;;;;;;;;2073839;28;20034;-66
2021/11/27 01:07:36;;;;;;;2.17;2.03;;;;;;;;;;2073832;28;20018;-66
2021/11/27 01:08:56;;;;;;;2.20;1.95;;;;;;;;;;2072478;28;20520;-66
2021/11/27 01:10:20;;;;;;;3.58;2.10;;;;;;;;;;2073039;28;20033;-66
2021/11/27 01:11:41;;;;;;;2.08;1.88;;;;;;;;;;2074311;28;20484;-67
2021/11/27 01:13:00;;;;;;;3.67;1.70;;;;;;;;;;2075181;28;20396;-65
2021/11/27 01:14:21;;;;;;;1.90;1.60;;;;;;;;;;2071379;28;20034;-66
2021/11/27 01:15:40;;;;;;;1.88;1.73;;;;;;;;;;2071748;28;20082;-65
2021/11/27 01:17:04;;;;;;;2.92;2.30;;;;;;;;;;2080458;28;20026;-65
2021/11/27 01:18:23;;;;;;;2.13;1.70;;;;;;;;;;2073839;28;20061;-67
2021/11/27 01:19:43;;;;;;;3.17;1.73;;;;;;;;;;2070393;28;20476;-66
2021/11/27 01:21:04;;;;;;;2.17;1.65;;;;;;;;;;2071518;28;20034;-66
2021/11/27 01:22:23;;;;;;;2.67;1.60;;;;;;;;;;2068867;28;20368;-67
2021/11/27 01:23:43;;;;;;;1.88;1.63;;;;;;;;;;2072454;28;20038;-66
2021/11/27 01:25:03;;;;;;;3.58;1.88;;;;;;;;;;2071803;28;20121;-67
2021/11/27 01:26:23;;;;;;;1.60;1.42;;;;;;;;;;2070899;28;20156;-66
2021/11/27 01:27:42;;;;;;;2.08;1.88;;;;;;;;;;2070793;28;20049;-67
2021/11/27 01:29:01;;;;;;;2.05;1.90;;;;;;;;;;2072447;28;20033;-67
2021/11/27 01:30:20;;;;;;;1.95;1.75;;;;;;;;;;2071428;28;20041;-67
2021/11/27 01:31:39;;;;;;;3.17;1.70;;;;;;;;;;2077271;28;20101;-68
2021/11/27 01:32:58;;;;;;;3.65;2.00;;;;;;;;;;2073407;28;20392;-66
2021/11/27 01:34:17;;;;;;;3.22;1.90;;;;;;;;;;2073500;28;20033;-66
2021/11/27 01:35:36;;;;;;;2.67;1.98;;;;;;;;;;2071064;28;20046;-67
2021/11/27 01:36:55;;;;;;;2.53;1.33;;;;;;;;;;2071390;28;20022;-68
2021/11/27 01:38:14;;;;;;;3.17;1.70;;;;;;;;;;2069384;28;20029;-68
2021/11/27 01:39:33;;;;;;;2.25;1.77;;;;;;;;;;2065778;28;20030;-66
2021/11/27 01:40:52;;;;;;;2.13;1.55;;;;;;;;;;2071841;28;20018;-68
2021/11/27 01:42:12;;;;;;;2.55;1.83;;;;;;;;;;2071435;28;20038;-65
2021/11/27 01:43:32;;;;;;;2.63;1.75;;;;;;;;;;2072331;28;20045;-65
2021/11/27 01:44:51;;;;;;;2.00;1.75;;;;;;;;;;2074827;28;20416;-65
2021/11/27 01:46:09;;;;;;;2.40;1.63;;;;;;;;;;2077439;28;20507;-67
2021/11/27 01:47:28;;;;;;;3.42;1.80;;;;;;;;;;2072777;28;20448;-66
2021/11/27 01:48:47;;;;;;;1.75;1.65;;;;;;;;;;2072494;28;20121;-65
2021/11/27 01:50:06;;;;;;;1.63;1.52;;;;;;;;;;2072343;28;20030;-66
2021/11/27 01:51:25;;;;;;;1.60;1.50;;;;;;;;;;2071535;28;20029;-66
2021/11/27 01:52:44;;;;;;;3.47;1.60;;;;;;;;;;2071888;28;20459;-66
2021/11/27 01:54:05;;;;;;;2.63;1.70;;;;;;;;;;2073135;28;20022;-66
2021/11/27 01:55:25;;;;;;;1.92;1.70;;;;;;;;;;2073517;28;20495;-66
2021/11/27 01:56:45;;;;;;;1.98;1.73;;;;;;;;;;2074685;28;20038;-66
2021/11/27 01:58:04;;;;;;;2.65;1.90;;;;;;;;;;2072602;28;20030;-65
2021/11/27 01:59:24;;;;;;;2.60;2.00;;;;;;;;;;2073774;28;20037;-65
2021/11/27 02:00:44;;;;;;;1.58;1.48;;;;;;;;;;2069771;28;20079;-65
2021/11/27 02:02:04;;;;;;;2.38;1.88;;;;;;;;;;2069822;28;20074;-65
2021/11/27 02:03:23;;;;;;;6.47;1.75;;;;;;;;;;2072378;28;20273;-65
2021/11/27 02:04:42;;;;;;;2.83;1.60;;;;;;;;;;2073164;28;20038;-66
2021/11/27 02:06:03;;;;;;;1.55;1.35;;;;;;;;;;2074127;28;20029;-66
2021/11/27 02:07:22;;;;;;;1.60;1.50;;;;;;;;;;2076259;28;20026;-65
2021/11/27 02:08:43;;;;;;;2.22;1.77;;;;;;;;;;2073027;28;20029;-68
2021/11/27 02:10:02;;;;;;;3.67;1.83;;;;;;;;;;2078261;28;20477;-65
2021/11/27 02:11:24;;;;;;;1.80;1.70;;;;;;;;;;2075712;28;20030;-65
2021/11/27 02:12:43;;;;;;;2.40;1.92;;;;;;;;;;2072422;28;20509;-66
2021/11/27 02:14:02;;;;;;;1.70;1.42;;;;;;;;;;2071434;28;20026;-66
2021/11/27 02:15:22;;;;;;;3.78;1.67;;;;;;;;;;2071882;28;20033;-65
2021/11/27 02:16:41;;;;;;;1.70;1.60;;;;;;;;;;2072388;28;20030;-66
2021/11/27 02:18:00;;;;;;;1.73;1.63;;;;;;;;;;2073076;28;20038;-66
2021/11/27 02:19:19;;;;;;;1.70;1.60;;;;;;;;;;2075683;28;20026;-65
2021/11/27 02:20:39;;;;;;;1.60;1.50;;;;;;;;;;2071387;28;20057;-66
2021/11/27 02:21:58;;;;;;;2.28;1.80;;;;;;;;;;2067809;28;20399;-65
2021/11/27 02:23:18;;;;;;;1.83;1.73;;;;;;;;;;2070642;28;20025;-65
2021/11/27 02:24:37;;;;;;;2.67;1.58;;;;;;;;;;2070966;28;20026;-66
2021/11/27 02:25:56;;;;;;;3.65;2.20;;;;;;;;;;2073613;28;20117;-65
2021/11/27 02:27:15;;;;;;;2.35;1.48;;;;;;;;;;2066141;28;20034;-65
2021/11/27 02:28:36;;;;;;;2.58;1.60;;;;;;;;;;2073733;28;20675;-65
2021/11/27 02:29:55;;;;;;;3.25;1.88;;;;;;;;;;2070175;28;20034;-66
2021/11/27 02:31:14;;;;;;;1.65;1.55;;;;;;;;;;2076009;28;20034;-65
2021/11/27 02:32:33;;;;;;;1.65;1.40;;;;;;;;;;2068917;28;20030;-66
2021/11/27 02:33:55;;;;;;;4.90;1.50;;;;;;;;;;2070631;28;20121;-67
2021/11/27 02:35:14;;;;;;;1.45;1.35;;;;;;;;;;2073078;28;20081;-66
2021/11/27 02:36:34;;;;;;;1.52;1.42;;;;;;;;;;2073646;28;20029;-66
2021/11/27 02:37:53;;;;;;;1.60;1.50;;;;;;;;;;2071679;28;20471;-65
2021/11/27 02:39:13;;;;;;;1.75;1.38;;;;;;;;;;2070412;28;20412;-65
2021/11/27 02:40:32;;;;;;;1.67;1.58;;;;;;;;;;2073342;28;20061;-66
2021/11/27 02:41:55;;;;;;;1.50;1.40;;;;;;;;;;2070064;28;20030;-67
2021/11/27 02:43:14;;;;;;;2.40;1.33;;;;;;;;;;2072459;28;20081;-65
2021/11/27 02:44:34;;;;;;;1.70;1.50;;;;;;;;;;2071765;28;20038;-66
2021/11/27 02:45:54;;;;;;;1.50;1.40;;;;;;;;;;2078860;28;20538;-67
2021/11/27 02:47:13;;;;;;;2.80;1.60;;;;;;;;;;2070731;28;20064;-66
2021/11/27 02:48:32;;;;;;;2.40;1.38;;;;;;;;;;2071801;28;20022;-66
2021/11/27 02:49:51;;;;;;;1.58;1.40;;;;;;;;;;2068835;28;20489;-66
2021/11/27 02:51:10;;;;;;;1.45;1.35;;;;;;;;;;2071174;28;20038;-66
2021/11/27 02:52:29;;;;;;;1.48;1.20;;;;;;;;;;2072454;28;20440;-66
2021/11/27 02:53:48;;;;;;;2.83;1.20;;;;;;;;;;2072742;28;20034;-65
2021/11/27 02:55:08;;;;;;;3.65;1.40;;;;;;;;;;2072282;28;20033;-66
2021/11/27 02:56:27;;;;;;;2.78;1.35;;;;;;;;;;2069794;28;20034;-66
2021/11/27 02:57:46;;;;;;;2.63;1.30;;;;;;;;;;2079182;28;20496;-66
2021/11/27 02:59:11;;;;;;;2.00;1.60;;;;;;;;;;2074712;28;20026;-65
2021/11/27 03:00:30;;;;;;;1.15;1.05;;;;;;;;;;2071281;28;20034;-65
2021/11/27 03:01:53;;;;;;;3.47;1.52;;;;;;;;;;2072372;28;20022;-65
2021/11/27 03:03:12;;;;;;;1.15;1.05;;;;;;;;;;2074506;28;20026;-64
2021/11/27 03:04:34;;;;;;;3.55;1.73;;;;;;;;;;2068535;28;20030;-65
2021/11/27 03:05:53;;;;;;;1.80;1.20;;;;;;;;;;2069611;28;20034;-66
2021/11/27 03:07:14;;;;;;;1.25;1.13;;;;;;;;;;2071705;28;20492;-65
2021/11/27 03:08:33;;;;;;;2.50;1.25;;;;;;;;;;2071453;28;20042;-65
2021/11/27 03:09:52;;;;;;;1.80;1.25;;;;;;;;;;2071565;28;20018;-65
2021/11/27 03:11:11;;;;;;;1.40;1.30;;;;;;;;;;2073097;28;20021;-67
2021/11/27 03:12:30;;;;;;;2.45;1.20;;;;;;;;;;2072386;28;20038;-65
2021/11/27 03:13:49;;;;;;;1.30;1.20;;;;;;;;;;2070608;28;20033;-66
2021/11/27 03:15:09;;;;;;;1.45;1.13;;;;;;;;;;2074323;28;20030;-64
2021/11/27 03:16:29;;;;;;;1.20;1.10;;;;;;;;;;2072734;28;20046;-65
2021/11/27 03:17:48;;;;;;;1.42;1.25;;;;;;;;;;2073372;28;20467;-65
2021/11/27 03:19:07;;;;;;;1.42;1.20;;;;;;;;;;2073834;28;20392;-67
2021/11/27 03:20:26;;;;;;;2.85;1.23;;;;;;;;;;2071781;28;20476;-66
2021/11/27 03:21:46;;;;;;;1.20;1.10;;;;;;;;;;2067842;28;20034;-66
2021/11/27 03:23:05;;;;;;;1.27;1.17;;;;;;;;;;2071146;28;20026;-66
2021/11/27 03:24:24;;;;;;;1.70;1.17;;;;;;;;;;2070309;28;20034;-67
2021/11/27 03:25:43;;;;;;;1.38;1.17;;;;;;;;;;2074943;28;20026;-67
2021/11/27 03:27:02;;;;;;;4.85;2.95;;;;;;;;;;2072030;28;20022;-66
2021/11/27 03:28:22;;;;;;;5.35;1.40;;;;;;;;;;2076194;28;20034;-67
2021/11/27 03:29:41;;;;;;;2.88;1.17;;;;;;;;;;2070736;28;20504;-66
2021/11/27 03:31:00;;;;;;;2.33;1.25;;;;;;;;;;2071401;28;20116;-67
2021/11/27 03:32:19;;;;;;;1.35;1.25;;;;;;;;;;2074815;28;20025;-66
2021/11/27 03:33:38;;;;;;;1.05;0.90;;;;;;;;;;2072826;28;20030;-66
2021/11/27 03:34:57;;;;;;;2.83;1.17;;;;;;;;;;2072846;28;20030;-66
2021/11/27 03:36:16;;;;;;;1.77;1.08;;;;;;;;;;2072827;28;20030;-67
2021/11/27 03:37:35;;;;;;;2.00;1.30;;;;;;;;;;2075432;28;20025;-66
2021/11/27 03:38:54;;;;;;;2.25;1.30;;;;;;;;;;2073598;28;20076;-66
2021/11/27 03:40:13;;;;;;;0.90;0.90;;;;;;;;;;2079487;28;20497;-67
2021/11/27 03:41:32;;;;;;;1.73;1.40;;;;;;;;;;2074571;28;20034;-67
2021/11/27 03:42:51;;;;;;;1.88;1.40;;;;;;;;;;2080187;28;20025;-66
2021/11/27 03:44:10;;;;;;;0.80;0.80;;;;;;;;;;2072792;28;20030;-68
2021/11/27 03:45:29;;;;;;;1.25;0.90;;;;;;;;;;2070876;28;20030;-67
2021/11/27 03:46:48;;;;;;;1.65;1.00;;;;;;;;;;2074051;28;20077;-68
2021/11/27 03:48:09;;;;;;;2.22;1.40;;;;;;;;;;2070886;28;20069;-66
2021/11/27 03:49:30;;;;;;;1.30;1.10;;;;;;;;;;2072106;28;20030;-67
2021/11/27 03:50:50;;;;;;;1.10;1.00;;;;;;;;;;2073731;28;20022;-66
2021/11/27 03:52:09;;;;;;;1.27;1.00;;;;;;;;;;2074664;28;20037;-67
2021/11/27 03:53:30;;;;;;;1.00;0.90;;;;;;;;;;2071801;28;20492;-66
2021/11/27 03:54:50;;;;;;;0.80;0.80;;;;;;;;;;2071942;28;20029;-67
2021/11/27 03:56:10;;;;;;;1.17;1.08;;;;;;;;;;2071765;28;20034;-67
2021/11/27 03:57:29;;;;;;;1.20;1.10;;;;;;;;;;2074292;28;20034;-67
2021/11/27 03:58:48;;;;;;;1.30;1.00;;;;;;;;;;2073079;28;20492;-66
2021/11/27 04:00:07;;;;;;;1.25;1.00;;;;;;;;;;2073055;28;20029;-66
2021/11/27 04:01:27;;;;;;;2.05;0.88;;;;;;;;;;2068728;28;20026;-67
2021/11/27 04:02:46;;;;;;;1.52;1.00;;;;;;;;;;2078019;28;20021;-67
2021/11/27 04:04:07;;;;;;;0.95;0.85;;;;;;;;;;2076337;28;20058;-67
2021/11/27 04:05:26;;;;;;;1.35;1.23;;;;;;;;;;2073415;28;20058;-66
2021/11/27 04:06:45;;;;;;;1.65;1.10;;;;;;;;;;2072396;28;20395;-67
2021/11/27 04:08:04;;;;;;;5.28;1.10;;;;;;;;;;2072874;28;20050;-66
2021/11/27 04:09:23;;;;;;;1.15;0.98;;;;;;;;;;2074060;28;20042;-68
2021/11/27 04:10:41;;;;;;;1.40;1.00;;;;;;;;;;2069528;28;20035;-68
2021/11/27 04:12:00;;;;;;;2.60;0.95;;;;;;;;;;2084551;28;20029;-66
2021/11/27 04:13:20;;;;;;;1.23;1.13;;;;;;;;;;2077860;28;20069;-67
2021/11/27 04:14:38;;;;;;;0.88;0.85;;;;;;;;;;2074184;28;20368;-66
2021/11/27 04:15:57;;;;;;;1.90;1.00;;;;;;;;;;2077997;28;20454;-66
2021/11/27 04:17:16;;;;;;;1.10;1.00;;;;;;;;;;2074260;28;20092;-66
2021/11/27 04:18:35;;;;;;;2.70;0.90;;;;;;;;;;2075019;28;20029;-66
2021/11/27 04:19:54;;;;;;;1.40;0.90;;;;;;;;;;2073420;28;20476;-67
2021/11/27 04:21:14;;;;;;;2.15;0.90;;;;;;;;;;2072251;28;20030;-66
2021/11/27 04:22:33;;;;;;;1.70;0.65;;;;;;;;;;2073819;28;20026;-67
2021/11/27 04:23:52;;;;;;;1.25;0.93;;;;;;;;;;2076285;28;20038;-66
2021/11/27 04:25:12;;;;;;;0.65;0.65;;;;;;;;;;2072760;28;20018;-67
2021/11/27 04:26:31;;;;;;;0.80;0.60;;;;;;;;;;2073774;28;20026;-68
2021/11/27 04:27:50;;;;;;;0.80;0.80;;;;;;;;;;2081073;28;20037;-68
2021/11/27 04:29:09;;;;;;;0.98;0.88;;;;;;;;;;2077147;28;20030;-66
2021/11/27 04:30:29;;;;;;;1.35;0.70;;;;;;;;;;2072532;28;20033;-66
2021/11/27 04:31:48;;;;;;;1.25;0.90;;;;;;;;;;2072580;28;20130;-66
2021/11/27 04:33:07;;;;;;;0.63;0.52;;;;;;;;;;2075738;28;20901;-67
2021/11/27 04:34:26;;;;;;;0.52;0.50;;;;;;;;;;2071756;28;20029;-66
2021/11/27 04:35:45;;;;;;;0.85;0.77;;;;;;;;;;2070748;28;20034;-66
2021/11/27 04:37:04;;;;;;;1.20;1.10;;;;;;;;;;2074626;28;20026;-66
2021/11/27 04:38:23;;;;;;;0.63;0.60;;;;;;;;;;2071258;28;20535;-66
2021/11/27 04:39:43;;;;;;;2.10;0.75;;;;;;;;;;2078222;28;20029;-66
2021/11/27 04:41:02;;;;;;;1.88;0.50;;;;;;;;;;2070313;28;20101;-67
2021/11/27 04:42:22;;;;;;;0.70;0.60;;;;;;;;;;2074901;28;20029;-66
2021/11/27 04:43:41;;;;;;;1.17;0.70;;;;;;;;;;2075972;28;20035;-67
2021/11/27 04:45:00;;;;;;;0.70;0.65;;;;;;;;;;2073156;28;20026;-65
2021/11/27 04:46:19;;;;;;;3.05;0.60;;;;;;;;;;2071398;28;20026;-66
2021/11/27 04:47:38;;;;;;;2.05;0.70;;;;;;;;;;2072308;28;20061;-66
2021/11/27 04:48:57;;;;;;;0.73;0.73;;;;;;;;;;2067281;28;20042;-65
2021/11/27 04:50:16;;;;;;;0.73;0.70;;;;;;;;;;2068188;28;20392;-65
2021/11/27 04:51:35;;;;;;;1.13;0.57;;;;;;;;;;2072663;28;20022;-66
2021/11/27 04:52:54;;;;;;;0.77;0.77;;;;;;;;;;2073600;28;20397;-66
2021/11/27 04:54:13;;;;;;;1.77;1.10;;;;;;;;;;2072451;28;20045;-66
2021/11/27 04:55:32;;;;;;;0.68;0.65;;;;;;;;;;2070789;28;20096;-65
2021/11/27 04:56:51;;;;;;;0.70;0.70;;;;;;;;;;2071229;28;20050;-65
2021/11/27 04:58:10;;;;;;;0.70;0.57;;;;;;;;;;2069308;28;20384;-65
2021/11/27 04:59:30;;;;;;;1.30;0.90;;;;;;;;;;2072912;28;20034;-65
2021/11/27 05:00:51;;;;;;;1.83;0.68;;;;;;;;;;2070040;28;20030;-65
2021/11/27 05:02:10;;;;;;;0.98;0.73;;;;;;;;;;2071777;28;20480;-66
2021/11/27 05:03:30;;;;;;;0.90;0.90;;;;;;;;;;2072586;28;20038;-66
2021/11/27 05:04:48;;;;;;;0.90;0.77;;;;;;;;;;2072304;28;20046;-66
2021/11/27 05:06:07;;;;;;;1.25;0.75;;;;;;;;;;2071233;28;20022;-65
2021/11/27 05:07:26;;;;;;;1.80;0.70;;;;;;;;;;2073553;28;20492;-67
2021/11/27 05:08:45;;;;;;;1.23;0.80;;;;;;;;;;2070591;28;20042;-64
2021/11/27 05:10:05;;;;;;;0.95;0.73;;;;;;;;;;2068901;28;20417;-65
2021/11/27 05:11:23;;;;;;;1.10;0.70;;;;;;;;;;2073630;28;20033;-66
2021/11/27 05:12:42;;;;;;;1.73;0.85;;;;;;;;;;2072158;28;20026;-66
2021/11/27 05:14:01;;;;;;;0.80;0.80;;;;;;;;;;2071774;28;20022;-65
2021/11/27 05:15:20;;;;;;;0.77;0.60;;;;;;;;;;2073932;28;20046;-67
2021/11/27 05:16:39;;;;;;;1.30;0.85;;;;;;;;;;2069339;28;20029;-67
2021/11/27 05:17:58;;;;;;;0.68;0.68;;;;;;;;;;2074143;28;20416;-64
2021/11/27 05:19:17;;;;;;;0.77;0.70;;;;;;;;;;2072401;28;20492;-65
2021/11/27 05:20:36;;;;;;;0.60;0.60;;;;;;;;;;2072265;28;20027;-66
2021/11/27 05:21:55;;;;;;;0.98;0.70;;;;;;;;;;2074287;28;20022;-65
2021/11/27 05:23:14;;;;;;;1.88;0.73;;;;;;;;;;2072166;28;20030;-66
2021/11/27 05:24:33;;;;;;;0.50;0.50;;;;;;;;;;2071558;28;20038;-65
2021/11/27 05:25:52;;;;;;;0.90;0.60;;;;;;;;;;2076523;28;20034;-65
2021/11/27 05:27:15;;;;;;;1.25;0.50;;;;;;;;;;2072614;28;20488;-64
2021/11/27 05:28:34;;;;;;;0.55;0.52;;;;;;;;;;2075251;28;20026;-65
2021/11/27 05:29:53;;;;;;;0.65;0.65;;;;;;;;;;2073585;28;20042;-65
2021/11/27 05:31:14;;;;;;;0.90;0.70;;;;;;;;;;2074942;28;20030;-65
2021/11/27 05:35:17;;;;;;;2.28;0.70;;;;;;;;;;2072814;28;20117;-65
2021/11/27 05:36:40;;;;;;;3.33;0.60;;;;;;;;;;2073216;28;20026;-66
2021/11/27 05:37:59;;;;;;;;;;;;;;;;;;2074737;28;20030;-66
2021/11/27 05:39:18;;;;;;;0.70;0.70;;;;;;;;;;2072851;28;20375;-66
2021/11/27 05:40:37;;;;;;;1.85;0.70;;;;;;;;;;2075778;28;20476;-65
2021/11/27 05:41:56;;;;;;;0.85;0.85;;;;;;;;;;2081298;28;20491;-65
2021/11/27 05:43:15;;;;;;;0.47;0.47;;;;;;;;;;2074873;28;20033;-66
2021/11/27 05:44:34;;;;;;;0.80;0.50;;;;;;;;;;2079287;28;20026;-65
2021/11/27 05:45:53;;;;;;;0.68;0.68;;;;;;;;;;2076479;28;20556;-65
2021/11/27 05:47:13;;;;;;;1.08;0.90;;;;;;;;;;2076704;28;20018;-66
2021/11/27 05:48:31;;;;;;;0.50;0.50;;;;;;;;;;2074425;28;20030;-65
2021/11/27 05:49:50;;;;;;;0.60;0.60;;;;;;;;;;2073413;28;20026;-65
2021/11/27 05:51:09;;;;;;;0.93;0.63;;;;;;;;;;2072525;28;20022;-66
2021/11/27 05:52:28;;;;;;;0.80;0.80;;;;;;;;;;2073507;28;20030;-67
2021/11/27 05:53:47;;;;;;;0.50;0.50;;;;;;;;;;2074150;28;20057;-65
2021/11/27 05:55:06;;;;;;;0.90;0.57;;;;;;;;;;2080590;28;20030;-65
2021/11/27 05:56:26;;;;;;;2.50;0.90;;;;;;;;;;2076765;28;20034;-65
2021/11/27 05:57:45;;;;;;;1.10;0.60;;;;;;;;;;2078525;28;20515;-65
2021/11/27 05:59:04;;;;;;;0.80;0.70;;;;;;;;;;2070821;28;20034;-65
2021/11/27 06:00:23;;;;;;;2.38;0.70;;;;;;;;;;2072791;28;20030;-64
2021/11/27 06:01:42;;;;;;;0.70;0.60;;;;;;;;;;2075823;28;20415;-65
2021/11/27 06:03:01;;;;;;;0.85;0.60;;;;;;;;;;2071079;28;20544;-66
2021/11/27 06:04:20;;;;;;;1.00;0.77;;;;;;;;;;2070253;28;20489;-66
2021/11/27 06:05:39;;;;;;;0.40;0.40;;;;;;;;;;2080257;28;20037;-65
2021/11/27 06:06:57;;;;;;;1.10;0.80;;;;;;;;;;2074138;28;20066;-66
2021/11/27 06:08:16;;;;;;;0.70;0.70;;;;;;;;;;2080913;28;20484;-66
2021/11/27 06:09:36;;;;;;;2.60;0.60;;;;;;;;;;2073621;28;20128;-66
2021/11/27 06:10:54;;;;;;;1.42;0.70;;;;;;;;;;2072069;28;20022;-66
2021/11/27 06:12:14;;;;;;;1.40;0.68;;;;;;;;;;2071890;28;20030;-66
2021/11/27 06:13:33;;;;;;;0.70;0.60;;;;;;;;;;2074093;28;20038;-65
2021/11/27 06:14:51;;;;;;;1.83;0.77;;;;;;;;;;2071794;28;20030;-66
2021/11/27 06:16:10;;;;;;;0.90;0.63;;;;;;;;;;2070038;28;20124;-66
2021/11/27 06:17:29;;;;;;;0.80;0.70;;;;;;;;;;2078671;28;20034;-65
2021/11/27 06:18:48;;;;;;;0.70;0.70;;;;;;;;;;2070091;28;20054;-65
2021/11/27 06:20:07;;;;;;;0.60;0.60;;;;;;;;;;2068451;28;20116;-66
2021/11/27 06:21:26;;;;;;;1.13;0.70;;;;;;;;;;2070238;28;20617;-66
2021/11/27 06:22:45;;;;;;;1.00;0.73;;;;;;;;;;2069787;28;20026;-66
2021/11/27 06:24:06;;;;;;;0.80;0.80;;;;;;;;;;2069339;28;20042;-67
2021/11/27 06:25:26;;;;;;;0.70;0.70;;;;;;;;;;2070255;28;20026;-66
2021/11/27 06:26:45;;;;;;;2.75;0.85;;;;;;;;;;2072653;28;20068;-66
2021/11/27 06:28:04;;;;;;;1.42;0.77;;;;;;;;;;2071840;28;20041;-66
2021/11/27 06:29:23;;;;;;;0.82;0.60;;;;;;;;;;2073410;28;20030;-65
2021/11/27 06:30:42;;;;;;;0.70;0.70;;;;;;;;;;2070550;28;20423;-66
2021/11/27 06:32:01;;;;;;;2.40;0.75;;;;;;;;;;2071804;28;20034;-66
2021/11/27 06:33:21;;;;;;;1.40;0.70;;;;;;;;;;2073119;28;20022;-66
2021/11/27 06:34:40;;;;;;;1.67;0.77;;;;;;;;;;2072409;28;20038;-65
2021/11/27 06:35:59;;;;;;;0.90;0.60;;;;;;;;;;2071960;28;20104;-66
2021/11/27 06:37:19;;;;;;;0.90;0.52;;;;;;;;;;2071785;28;20105;-66
2021/11/27 06:38:38;;;;;;;0.70;0.70;;;;;;;;;;2074746;28;20034;-66
2021/11/27 06:39:59;;;;;;;1.52;0.80;;;;;;;;;;2074703;28;20053;-66
2021/11/27 06:41:18;;;;;;;0.70;0.60;;;;;;;;;;2072073;28;20038;-66
2021/11/27 06:42:37;;;;;;;1.55;0.45;;;;;;;;;;2071584;28;20094;-67
2021/11/27 06:43:56;;;;;;;0.75;0.70;;;;;;;;;;2072671;28;20411;-67
2021/11/27 06:45:15;;;;;;;1.02;0.90;;;;;;;;;;2070400;28;20120;-67
2021/11/27 06:46:34;;;;;;;3.03;0.98;;;;;;;;;;2072613;28;20034;-68
2021/11/27 06:47:53;;;;;;;0.82;0.82;;;;;;;;;;2073342;28;20042;-67
2021/11/27 06:49:12;;;;;;;1.83;0.70;;;;;;;;;;2071864;28;20021;-67
2021/11/27 06:50:31;;;;;;;1.00;0.90;;;;;;;;;;2073711;28;20053;-67
2021/11/27 06:51:50;;;;;;;1.90;0.70;;;;;;;;;;2067243;28;20022;-69
2021/11/27 06:53:09;;;;;;;1.00;0.90;;;;;;;;;;2066793;28;20034;-67
2021/11/27 06:54:28;;;;;;;0.70;0.70;;;;;;;;;;2072447;28;20030;-67
2021/11/27 06:55:46;;;;;;;1.02;0.90;;;;;;;;;;2070882;28;20074;-67
2021/11/27 06:57:06;;;;;;;0.95;0.85;;;;;;;;;;2072319;28;20022;-68
2021/11/27 06:58:25;;;;;;;2.50;0.80;;;;;;;;;;2072052;28;20057;-67
2021/11/27 06:59:44;;;;;;;1.08;0.60;;;;;;;;;;2067620;28;20030;-67
2021/11/27 07:01:02;;;;;;;2.15;0.70;;;;;;;;;;2071160;28;20026;-67
2021/11/27 07:02:21;;;;;;;1.67;0.77;;;;;;;;;;2072044;28;20022;-68
2021/11/27 07:03:40;;;;;;;2.05;0.98;;;;;;;;;;2075795;28;20080;-67
2021/11/27 07:04:59;;;;;;;1.23;0.70;;;;;;;;;;2073672;28;20494;-69
2021/11/27 07:06:18;;;;;;;1.55;0.60;;;;;;;;;;2080977;28;20033;-67
2021/11/27 07:07:37;;;;;;;1.20;0.80;;;;;;;;;;2074110;28;20022;-66
2021/11/27 07:08:56;;;;;;;2.55;0.60;;;;;;;;;;2070468;28;20038;-67
2021/11/27 07:10:15;;;;;;;0.80;0.80;;;;;;;;;;2070303;28;20097;-68
2021/11/27 07:11:34;;;;;;;1.20;0.80;;;;;;;;;;2069987;28;20077;-67
2021/11/27 07:12:53;;;;;;;2.08;1.10;;;;;;;;;;2071413;28;20057;-68
2021/11/27 07:14:12;;;;;;;0.70;0.70;;;;;;;;;;2077823;28;20029;-68
2021/11/27 07:15:31;;;;;;;0.80;0.80;;;;;;;;;;2075596;28;20478;-67
2021/11/27 07:16:49;;;;;;;1.88;0.88;;;;;;;;;;2072420;28;20034;-68
2021/11/27 07:18:08;;;;;;;0.90;0.90;;;;;;;;;;2071413;28;20026;-67
2021/11/27 07:19:27;;;;;;;1.48;0.98;;;;;;;;;;2082254;28;20037;-68
2021/11/27 07:20:47;;;;;;;0.75;0.75;;;;;;;;;;2074041;28;20045;-69
2021/11/27 07:22:06;;;;;;;2.63;0.60;;;;;;;;;;2072074;28;20423;-67
2021/11/27 07:23:25;;;;;;;1.35;0.82;;;;;;;;;;2071349;28;20034;-67
2021/11/27 07:24:44;;;;;;;0.88;0.75;;;;;;;;;;2071476;28;20033;-67
2021/11/27 07:26:03;;;;;;;1.35;0.70;;;;;;;;;;2072153;28;22149;-67
2021/11/27 07:27:22;;;;;;;1.00;0.90;;;;;;;;;;2073095;28;20476;-68
2021/11/27 07:28:40;;;;;;;1.00;0.80;;;;;;;;;;2073491;28;20100;-67
2021/11/27 07:29:59;;;;;;;1.00;0.90;;;;;;;;;;2072049;28;20046;-67
2021/11/27 07:31:18;;;;;;;1.33;0.88;;;;;;;;;;2069077;28;20049;-67
2021/11/27 07:32:37;;;;;;;1.17;0.80;;;;;;;;;;2071663;28;20018;-67
2021/11/27 07:33:56;;;;;;;1.33;0.70;;;;;;;;;;2072725;28;20140;-67
2021/11/27 07:35:15;;;;;;;1.92;0.82;;;;;;;;;;2073222;28;20025;-68
2021/11/27 07:36:34;;;;;;;0.90;0.82;;;;;;;;;;2071933;28;20069;-67
2021/11/27 07:37:53;;;;;;;2.03;1.00;;;;;;;;;;2069817;28;20034;-67
2021/11/27 07:39:12;;;;;;;1.10;1.00;;;;;;;;;;2071488;28;20030;-67
2021/11/27 07:40:31;;;;;;;1.55;0.98;;;;;;;;;;2073877;28;20022;-68
2021/11/27 07:41:50;;;;;;;2.13;1.23;;;;;;;;;;2084860;28;20025;-66
2021/11/27 07:43:09;;;;;;;1.10;1.00;;;;;;;;;;2077146;28;20446;-67
2021/11/27 07:44:28;;;;;;;1.13;0.63;;;;;;;;;;2076758;28;20033;-67
2021/11/27 07:45:47;;;;;;;0.85;0.85;;;;;;;;;;2072872;28;20034;-67
2021/11/27 07:47:06;;;;;;;3.70;1.45;;;;;;;;;;2073238;28;20433;-67
2021/11/27 07:48:30;;;;;;;1.73;1.05;;;;;;;;;;2071691;28;20429;-67
2021/11/27 07:49:49;;;;;;;0.95;0.90;;;;;;;;;;2074871;28;20022;-67
2021/11/27 07:51:08;;;;;;;1.92;1.00;;;;;;;;;;2074321;28;20065;-68
2021/11/27 07:52:27;;;;;;;1.98;1.05;;;;;;;;;;2073670;28;20500;-67
2021/11/27 07:53:46;;;;;;;1.13;0.77;;;;;;;;;;2073651;28;20030;-66
2021/11/27 07:55:05;;;;;;;1.08;0.93;;;;;;;;;;2078830;28;20025;-67
2021/11/27 07:56:24;;;;;;;0.90;0.80;;;;;;;;;;2070694;28;20042;-68
2021/11/27 07:57:43;;;;;;;1.43;1.00;;;;;;;;;;2079699;28;20033;-68
2021/11/27 07:59:02;;;;;;;0.80;0.80;;;;;;;;;;2078758;28;20026;-66